Shawnee, Ohio
Current Conditions -  °F | °C
As of 4:53 PM on Wednesday 22 Oct 2014 (Local Time) from KLHQ Reporting Station
Overcast Overcast  
Wind Chill: 50°   Ceiling: 2300
Heat Index: 50°   Visibility: 10mi
Dew Point: 41°   Wind: 6mph
Humidity: 71%   Direction: 340°NNW
Pressure: 30.25"   Gusts: NA
Location:  39.6°N, 82.21°W
Report Text: KLHQ 222053Z AUTO 34005KT 10SM OVC023 10/05 A3025 RMK AO2 SLP245 T01000050 56002
Loading
Personal Weather Stations






























Interactive Weather Map
Tropical Storm Tracking
New forecast layout! Learn more

10-Day Weather Forecast

Advertisements
Track Severe Weather on mobile